Time;durP1;ratioP1;P1;durP2;ratioP2;P2;SDS_P1;SDS_P2;PMS_P1;PMS_P2;Temp;Humidity;BMP_temperature;BMP_pressure;BME280_temperature;BME280_humidity;BME280_pressure;Samples;Min_cycle;Max_cycle;Signal;HPM_P1;HPM_P2
2022/09/26 00:01:50;;;;;;;16.25;12.85;;;;;;;;;;5039887;28;20019;-73
2022/09/26 00:04:21;;;;;;;12.70;10.82;;;;;;;;;;5067557;28;20028;-72
2022/09/26 00:06:47;;;;;;;20.70;12.32;;;;;;;;;;5033080;28;20475;-73
2022/09/26 00:09:14;;;;;;;16.77;12.82;;;;;;;;;;5055497;28;20032;-74
2022/09/26 00:11:40;;;;;;;17.50;13.52;;;;;;;;;;5056166;28;20086;-71
2022/09/26 00:14:08;;;;;;;16.25;12.73;;;;;;;;;;5067138;28;20482;-71
2022/09/26 00:16:34;;;;;;;17.17;13.23;;;;;;;;;;5059113;28;20108;-73
2022/09/26 00:19:00;;;;;;;19.38;13.15;;;;;;;;;;5055169;28;20028;-73
2022/09/26 00:21:28;;;;;;;15.07;11.80;;;;;;;;;;5054892;28;20017;-72
2022/09/26 00:23:54;;;;;;;14.50;12.10;;;;;;;;;;5049550;28;20025;-72
2022/09/26 00:26:21;;;;;;;16.25;12.30;;;;;;;;;;5060477;28;20540;-72
2022/09/26 00:28:47;;;;;;;16.35;12.38;;;;;;;;;;5054854;28;20081;-72
2022/09/26 00:31:15;;;;;;;15.73;12.90;;;;;;;;;;5051742;28;20033;-72
2022/09/26 00:33:41;;;;;;;14.20;12.13;;;;;;;;;;5066877;28;20048;-72
2022/09/26 00:36:07;;;;;;;15.40;12.50;;;;;;;;;;5062416;28;20394;-72
2022/09/26 00:38:33;;;;;;;17.55;13.63;;;;;;;;;;5054381;28;20505;-73
2022/09/26 00:40:59;;;;;;;18.80;13.23;;;;;;;;;;5052167;28;20017;-72
2022/09/26 00:43:35;;;;;;;18.05;12.98;;;;;;;;;;5065432;28;20017;-72
2022/09/26 00:46:20;;;;;;;16.08;12.90;;;;;;;;;;5063264;28;20036;-72
2022/09/26 00:48:47;;;;;;;20.20;13.18;;;;;;;;;;5054609;28;20378;-72
2022/09/26 00:51:13;;;;;;;18.73;13.57;;;;;;;;;;5051953;28;20483;-72
2022/09/26 00:53:41;;;;;;;20.55;13.93;;;;;;;;;;5066615;28;20029;-72
2022/09/26 00:56:10;;;;;;;17.13;13.60;;;;;;;;;;5062157;28;20020;-72
2022/09/26 00:58:44;;;;;;;20.92;14.32;;;;;;;;;;5054068;28;20013;-72
2022/09/26 01:01:10;;;;;;;15.73;12.93;;;;;;;;;;5033264;28;20025;-73
2022/09/26 01:03:38;;;;;;;17.60;14.23;;;;;;;;;;5043945;28;20493;-73
2022/09/26 01:06:04;;;;;;;17.60;13.70;;;;;;;;;;5062460;28;20033;-73
2022/09/26 01:08:32;;;;;;;19.95;15.15;;;;;;;;;;5054901;28;20483;-72
2022/09/26 01:10:58;;;;;;;18.60;15.20;;;;;;;;;;5052086;28;20028;-73
2022/09/26 01:13:25;;;;;;;17.98;14.88;;;;;;;;;;5064784;28;20494;-73
2022/09/26 01:15:51;;;;;;;18.08;14.50;;;;;;;;;;5063754;28;20024;-73
2022/09/26 01:18:17;;;;;;;22.10;15.82;;;;;;;;;;5053872;28;20013;-73
2022/09/26 01:21:04;;;;;;;19.85;15.57;;;;;;;;;;5051783;28;20479;-73
2022/09/26 01:24:05;;;;;;;21.50;16.70;;;;;;;;;;5041709;28;20060;-73
2022/09/26 01:26:34;;;;;;;21.95;16.08;;;;;;;;;;4954457;28;20515;-73
2022/09/26 01:29:17;;;;;;;20.98;16.02;;;;;;;;;;5010832;28;20064;-73
2022/09/26 01:34:42;;;;;;;28.55;19.00;;;;;;;;;;5062828;28;21331;-74
2022/09/26 01:37:13;;;;;;;30.85;21.92;;;;;;;;;;5056260;28;20497;-73
2022/09/26 01:39:54;;;;;;;32.15;22.90;;;;;;;;;;5030238;28;20028;-72
2022/09/26 01:42:37;;;;;;;36.03;23.60;;;;;;;;;;5060354;28;20025;-73
2022/09/26 01:45:17;;;;;;;38.55;23.83;;;;;;;;;;5055582;28;20040;-73
2022/09/26 01:47:54;;;;;;;32.05;21.58;;;;;;;;;;5019793;28;20020;-74
2022/09/26 01:50:50;;;;;;;35.85;23.70;;;;;;;;;;5033044;28;20494;-73
2022/09/26 01:53:19;;;;;;;29.80;20.40;;;;;;;;;;5043078;28;20036;-73
2022/09/26 01:55:47;;;;;;;30.05;20.63;;;;;;;;;;5062915;28;20099;-73
2022/09/26 01:58:13;;;;;;;30.80;19.63;;;;;;;;;;5054035;28;20390;-73
2022/09/26 02:00:41;;;;;;;24.05;16.95;;;;;;;;;;5050339;28;20025;-72
2022/09/26 02:03:10;;;;;;;22.17;16.98;;;;;;;;;;5062028;28;20021;-72
2022/09/26 02:05:46;;;;;;;21.60;15.32;;;;;;;;;;5044721;28;20349;-72
2022/09/26 02:08:15;;;;;;;24.67;15.63;;;;;;;;;;5036602;28;20029;-73
2022/09/26 02:10:45;;;;;;;24.55;15.75;;;;;;;;;;5050686;28;20037;-72
2022/09/26 02:13:23;;;;;;;23.00;16.20;;;;;;;;;;5061993;28;20024;-73
2022/09/26 02:15:51;;;;;;;24.90;15.63;;;;;;;;;;5062733;28;20067;-73
2022/09/26 02:18:23;;;;;;;22.23;14.20;;;;;;;;;;5053849;28;20021;-74
2022/09/26 02:20:54;;;;;;;18.75;13.48;;;;;;;;;;5051064;28;20025;-73
2022/09/26 02:23:20;;;;;;;19.83;12.63;;;;;;;;;;5063038;28;20036;-74
2022/09/26 02:25:47;;;;;;;21.65;12.57;;;;;;;;;;5062825;28;20027;-73
2022/09/26 02:28:13;;;;;;;17.58;11.52;;;;;;;;;;5054315;28;20387;-73
2022/09/26 02:30:40;;;;;;;14.00;10.13;;;;;;;;;;5052934;28;20120;-73
2022/09/26 02:33:06;;;;;;;15.35;11.50;;;;;;;;;;5065912;28;20017;-74
2022/09/26 02:38:17;;;;;;;16.80;11.45;;;;;;;;;;5057534;28;20024;-73
2022/09/26 02:41:17;;;;;;;15.75;11.25;;;;;;;;;;5054550;28;20029;-74
2022/09/26 02:43:43;;;;;;;18.17;12.07;;;;;;;;;;5014501;28;20064;-73
2022/09/26 02:46:18;;;;;;;24.60;13.60;;;;;;;;;;5063877;28;20024;-75
2022/09/26 02:48:54;;;;;;;24.38;13.32;;;;;;;;;;5056592;28;20029;-75
2022/09/26 02:51:23;;;;;;;21.85;14.15;;;;;;;;;;5037019;28;20036;-74
2022/09/26 02:53:58;;;;;;;23.90;13.13;;;;;;;;;;5068819;28;20154;-74
2022/09/26 02:56:44;;;;;;;27.95;15.77;;;;;;;;;;5061630;28;20032;-75
2022/09/26 02:59:29;;;;;;;26.05;15.02;;;;;;;;;;5056351;28;20017;-75
2022/09/26 03:01:55;;;;;;;19.15;13.02;;;;;;;;;;5047746;28;20021;-76
2022/09/26 03:04:21;;;;;;;21.90;14.10;;;;;;;;;;5067574;28;20383;-75
2022/09/26 03:07:18;;;;;;;23.33;14.65;;;;;;;;;;5084428;22;20040;-80
2022/09/26 03:17:13;;;;;;;;;;;;;;;;;;;;;
2022/09/26 03:26:23;;;;;;;;;;;;;;;;;;;;;
2022/09/26 03:48:25;;;;;;;17.42;9.55;;;;;;;;;;4603438;22;20137;-80
2022/09/26 03:50:51;;;;;;;14.88;9.23;;;;;;;;;;4980647;28;20407;-78
2022/09/26 03:53:36;;;;;;;16.95;10.05;;;;;;;;;;5003224;28;20027;-78
2022/09/26 04:02:56;;;;;;;19.98;10.32;;;;;;;;;;4944889;29;20046;-80
2022/09/26 04:05:53;;;;;;;19.55;11.10;;;;;;;;;;4943322;29;20075;-80
2022/09/26 04:08:19;;;;;;;17.95;11.38;;;;;;;;;;4942751;22;20061;-73
2022/09/26 04:10:45;;;;;;;20.05;12.45;;;;;;;;;;5032998;28;20026;-74
2022/09/26 04:13:11;;;;;;;19.45;11.50;;;;;;;;;;5043885;28;20025;-75
2022/09/26 04:15:37;;;;;;;20.23;12.20;;;;;;;;;;5044483;28;20040;-74
2022/09/26 04:18:03;;;;;;;19.67;11.48;;;;;;;;;;5037052;28;20854;-74
2022/09/26 04:20:30;;;;;;;17.98;10.93;;;;;;;;;;5032531;28;20025;-74
2022/09/26 04:22:56;;;;;;;16.10;9.90;;;;;;;;;;5025627;28;20025;-73
2022/09/26 04:25:22;;;;;;;18.83;10.50;;;;;;;;;;5042420;28;20029;-77
2022/09/26 04:27:48;;;;;;;25.10;12.43;;;;;;;;;;5038835;28;20076;-74
2022/09/26 04:30:14;;;;;;;22.35;12.32;;;;;;;;;;5032600;28;20418;-74
2022/09/26 04:32:40;;;;;;;22.88;13.48;;;;;;;;;;5043639;28;20560;-75
2022/09/26 04:35:06;;;;;;;27.00;14.50;;;;;;;;;;5037110;28;20032;-75
2022/09/26 04:37:35;;;;;;;23.52;13.52;;;;;;;;;;5039501;28;20112;-75
2022/09/26 04:40:01;;;;;;;33.03;16.00;;;;;;;;;;5032355;28;20045;-75
2022/09/26 04:42:27;;;;;;;28.10;16.30;;;;;;;;;;5024031;28;20048;-75
2022/09/26 04:44:53;;;;;;;27.75;15.75;;;;;;;;;;5023673;28;20033;-75
2022/09/26 04:47:19;;;;;;;29.17;15.73;;;;;;;;;;5020378;28;20124;-75
2022/09/26 04:49:45;;;;;;;32.50;17.13;;;;;;;;;;5033133;28;20120;-75
2022/09/26 04:52:12;;;;;;;36.53;18.42;;;;;;;;;;5039643;28;20047;-74
2022/09/26 04:54:38;;;;;;;28.70;16.95;;;;;;;;;;5024754;28;20044;-74
2022/09/26 04:57:04;;;;;;;31.20;17.00;;;;;;;;;;5037244;28;20472;-73
2022/09/26 04:59:30;;;;;;;42.95;19.92;;;;;;;;;;5034384;28;20026;-74
2022/09/26 05:01:56;;;;;;;33.67;19.15;;;;;;;;;;5037404;28;20104;-75
2022/09/26 05:04:22;;;;;;;35.70;17.73;;;;;;;;;;5045758;28;20041;-73
2022/09/26 05:06:48;;;;;;;34.65;18.30;;;;;;;;;;5019570;28;20026;-75
2022/09/26 05:09:14;;;;;;;39.47;18.35;;;;;;;;;;5033849;28;20136;-75
2022/09/26 05:11:40;;;;;;;35.38;17.65;;;;;;;;;;5012836;28;20447;-74
2022/09/26 05:14:07;;;;;;;39.90;18.98;;;;;;;;;;5033606;28;20034;-74
2022/09/26 05:16:33;;;;;;;38.63;18.55;;;;;;;;;;5032273;28;20395;-76
2022/09/26 05:18:59;;;;;;;50.63;22.35;;;;;;;;;;5032582;28;20541;-76
2022/09/26 05:21:25;;;;;;;44.65;20.40;;;;;;;;;;5015756;28;20108;-75
2022/09/26 05:26:36;;;;;;;45.13;21.95;;;;;;;;;;5037182;28;20140;-75
2022/09/26 05:29:03;;;;;;;42.03;21.33;;;;;;;;;;5015733;28;20108;-75
2022/09/26 05:31:31;;;;;;;43.90;22.83;;;;;;;;;;5033780;28;20017;-76
2022/09/26 05:33:58;;;;;;;46.40;23.17;;;;;;;;;;5028072;28;20509;-75
2022/09/26 05:36:24;;;;;;;56.92;25.75;;;;;;;;;;5033279;28;20464;-75
2022/09/26 05:38:51;;;;;;;53.80;27.02;;;;;;;;;;5036140;28;20063;-75
2022/09/26 05:41:17;;;;;;;43.08;22.40;;;;;;;;;;5035470;28;20026;-78
2022/09/26 05:43:43;;;;;;;46.03;24.17;;;;;;;;;;5047600;28;20108;-78
2022/09/26 05:46:10;;;;;;;54.33;25.02;;;;;;;;;;5025014;28;20087;-76
2022/09/26 05:48:37;;;;;;;46.90;25.50;;;;;;;;;;5033662;28;20104;-76
2022/09/26 05:51:11;;;;;;;35.00;21.90;;;;;;;;;;5013248;28;20036;-76
2022/09/26 05:53:38;;;;;;;49.95;24.35;;;;;;;;;;5004909;28;20024;-76
2022/09/26 05:56:05;;;;;;;45.58;22.52;;;;;;;;;;5041398;28;20104;-77
2022/09/26 05:58:31;;;;;;;39.22;21.52;;;;;;;;;;5033647;28;20028;-75
2022/09/26 06:01:11;;;;;;;38.78;22.42;;;;;;;;;;5014303;28;20120;-78
2022/09/26 06:03:37;;;;;;;42.05;21.40;;;;;;;;;;5035659;28;20017;-76
2022/09/26 06:06:04;;;;;;;34.10;19.83;;;;;;;;;;5045787;28;20092;-76
2022/09/26 06:08:30;;;;;;;32.15;18.80;;;;;;;;;;5019791;28;20029;-76
2022/09/26 06:11:04;;;;;;;34.60;20.02;;;;;;;;;;5035236;28;20033;-78
2022/09/26 06:13:30;;;;;;;30.73;18.23;;;;;;;;;;5038629;28;20028;-76
2022/09/26 06:16:00;;;;;;;32.40;18.23;;;;;;;;;;5037100;28;20077;-78
2022/09/26 06:18:26;;;;;;;36.25;20.20;;;;;;;;;;5017834;28;20018;-76
2022/09/26 06:20:52;;;;;;;36.67;19.77;;;;;;;;;;5019215;28;20028;-75
2022/09/26 06:23:18;;;;;;;38.88;19.55;;;;;;;;;;5036550;28;20017;-80
2022/09/26 06:25:44;;;;;;;39.88;21.77;;;;;;;;;;5047970;28;20031;-77
2022/09/26 06:28:10;;;;;;;33.25;19.27;;;;;;;;;;5039435;28;20079;-76
2022/09/26 06:30:39;;;;;;;36.50;20.48;;;;;;;;;;5035512;28;20029;-77
2022/09/26 06:33:04;;;;;;;35.70;18.92;;;;;;;;;;5046081;28;20105;-78
2022/09/26 06:35:32;;;;;;;36.65;20.08;;;;;;;;;;5042413;28;20575;-77
2022/09/26 06:37:58;;;;;;;35.17;18.30;;;;;;;;;;5040977;28;20434;-76
2022/09/26 06:40:24;;;;;;;36.08;20.10;;;;;;;;;;5038687;28;20013;-77
2022/09/26 06:42:50;;;;;;;33.15;18.63;;;;;;;;;;5032831;28;20025;-77
2022/09/26 06:45:16;;;;;;;31.83;18.35;;;;;;;;;;5044867;28;20052;-77
2022/09/26 06:47:42;;;;;;;28.92;17.35;;;;;;;;;;5037844;28;20046;-78
2022/09/26 06:50:10;;;;;;;30.10;17.33;;;;;;;;;;5035900;28;20032;-78
2022/09/26 06:52:36;;;;;;;26.70;16.20;;;;;;;;;;5046580;28;20171;-78
2022/09/26 06:55:02;;;;;;;25.95;16.05;;;;;;;;;;5025876;28;20535;-78
2022/09/26 06:57:29;;;;;;;26.40;15.80;;;;;;;;;;5042489;28;20053;-76
2022/09/26 06:59:55;;;;;;;28.00;15.73;;;;;;;;;;5035903;28;20017;-77
2022/09/26 07:02:25;;;;;;;28.88;16.17;;;;;;;;;;5036091;28;20032;-80
2022/09/26 07:04:51;;;;;;;25.70;15.77;;;;;;;;;;5051885;28;20491;-78
2022/09/26 07:07:17;;;;;;;26.48;16.20;;;;;;;;;;5038214;28;20411;-78
2022/09/26 07:09:43;;;;;;;29.67;17.48;;;;;;;;;;5036216;28;20116;-76
2022/09/26 07:12:09;;;;;;;27.23;16.58;;;;;;;;;;5038204;28;20095;-77
2022/09/26 07:14:36;;;;;;;28.27;16.92;;;;;;;;;;5043972;28;20256;-78
2022/09/26 07:17:02;;;;;;;27.52;16.45;;;;;;;;;;5041379;28;20026;-79
2022/09/26 07:19:28;;;;;;;23.10;14.68;;;;;;;;;;5051269;28;20017;-79
2022/09/26 07:21:54;;;;;;;27.17;15.50;;;;;;;;;;5041932;28;20071;-79
2022/09/26 07:24:20;;;;;;;28.80;17.27;;;;;;;;;;5027718;28;20483;-77
2022/09/26 07:26:46;;;;;;;19.73;14.65;;;;;;;;;;5042209;28;20024;-77
2022/09/26 07:29:12;;;;;;;22.92;13.93;;;;;;;;;;5038238;28;20029;-78
2022/09/26 07:31:38;;;;;;;19.02;13.77;;;;;;;;;;5036231;28;20024;-78
2022/09/26 07:34:04;;;;;;;18.35;13.00;;;;;;;;;;5038433;28;20025;-76
2022/09/26 07:36:30;;;;;;;13.57;10.18;;;;;;;;;;5023986;28;20018;-79
2022/09/26 07:38:56;;;;;;;12.30;9.40;;;;;;;;;;5034254;28;20025;-81
2022/09/26 07:41:22;;;;;;;12.85;9.13;;;;;;;;;;5036482;28;20032;-78
2022/09/26 07:43:48;;;;;;;10.77;7.72;;;;;;;;;;5039609;28;20498;-75
2022/09/26 07:51:44;;;;;;;14.20;7.80;;;;;;;;;;5047727;28;20048;-79
2022/09/26 07:54:10;;;;;;;10.85;8.07;;;;;;;;;;5043169;28;20095;-78
2022/09/26 07:56:37;;;;;;;10.00;7.68;;;;;;;;;;5035252;28;20017;-77
2022/09/26 07:59:04;;;;;;;10.50;8.20;;;;;;;;;;5035996;28;20480;-77
2022/09/26 08:01:30;;;;;;;12.57;7.93;;;;;;;;;;5035001;28;20025;-76
2022/09/26 08:03:57;;;;;;;11.82;8.55;;;;;;;;;;5048667;28;20130;-78
2022/09/26 08:06:24;;;;;;;10.65;7.38;;;;;;;;;;5042372;28;20489;-75
2022/09/26 08:08:53;;;;;;;12.68;8.60;;;;;;;;;;5036644;28;20064;-76
2022/09/26 08:11:20;;;;;;;11.68;7.43;;;;;;;;;;5036022;28;20101;-78
2022/09/26 08:13:47;;;;;;;13.70;8.38;;;;;;;;;;5036325;28;20370;-77
2022/09/26 08:16:21;;;;;;;9.63;6.78;;;;;;;;;;5044627;28;20021;-77
2022/09/26 08:18:47;;;;;;;9.75;6.68;;;;;;;;;;5046836;28;20029;-76
2022/09/26 08:21:13;;;;;;;9.40;6.85;;;;;;;;;;5037164;28;20033;-76
2022/09/26 08:23:39;;;;;;;9.38;6.78;;;;;;;;;;5016157;28;20403;-76
2022/09/26 08:26:06;;;;;;;8.20;6.60;;;;;;;;;;5037593;28;20029;-78
2022/09/26 08:28:33;;;;;;;9.52;6.53;;;;;;;;;;5032451;28;20009;-77
2022/09/26 08:31:02;;;;;;;12.10;6.88;;;;;;;;;;5036824;28;20604;-76
2022/09/26 08:33:28;;;;;;;10.27;5.68;;;;;;;;;;5031924;28;20044;-77
2022/09/26 08:35:55;;;;;;;9.15;5.10;;;;;;;;;;5048205;28;20028;-76
2022/09/26 08:38:21;;;;;;;8.82;4.97;;;;;;;;;;5036038;28;20029;-78
2022/09/26 08:41:02;;;;;;;7.40;4.68;;;;;;;;;;5035358;28;20107;-79
2022/09/26 08:43:34;;;;;;;5.35;3.78;;;;;;;;;;5002116;28;20018;-77
2022/09/26 08:48:38;;;;;;;6.22;4.45;;;;;;;;;;5034575;28;20116;-75
2022/09/26 08:51:18;;;;;;;6.00;4.00;;;;;;;;;;5032300;28;20022;-79
2022/09/26 08:54:07;;;;;;;7.20;5.13;;;;;;;;;;5039835;28;20052;-76
2022/09/26 08:56:35;;;;;;;8.00;4.18;;;;;;;;;;5022314;28;20040;-78
2022/09/26 08:59:02;;;;;;;5.55;3.38;;;;;;;;;;5029283;28;20459;-74
2022/09/26 09:01:29;;;;;;;6.93;3.28;;;;;;;;;;5033252;28;20017;-76
2022/09/26 09:04:01;;;;;;;4.90;3.08;;;;;;;;;;5031588;28;20022;-75
2022/09/26 09:06:28;;;;;;;4.60;2.35;;;;;;;;;;5019457;28;20021;-76
2022/09/26 09:08:55;;;;;;;4.60;2.58;;;;;;;;;;5030402;28;20060;-76
2022/09/26 09:11:24;;;;;;;8.07;5.03;;;;;;;;;;5039780;28;20569;-76
2022/09/26 09:13:50;;;;;;;17.75;13.65;;;;;;;;;;5038412;28;20032;-76
2022/09/26 09:16:26;;;;;;;6.68;4.53;;;;;;;;;;5041082;28;20148;-76
2022/09/26 09:19:04;;;;;;;15.95;9.85;;;;;;;;;;5034893;28;20177;-74
2022/09/26 09:21:33;;;;;;;6.63;3.90;;;;;;;;;;5035205;28;20028;-75
2022/09/26 09:24:18;;;;;;;14.55;7.43;;;;;;;;;;5042965;28;20492;-76
2022/09/26 09:26:44;;;;;;;9.48;5.00;;;;;;;;;;5013323;28;20032;-75
2022/09/26 09:29:29;;;;;;;5.88;2.75;;;;;;;;;;5034428;28;20030;-74
2022/09/26 09:31:56;;;;;;;7.97;5.35;;;;;;;;;;5025437;28;20155;-75
2022/09/26 09:34:26;;;;;;;9.73;4.28;;;;;;;;;;5045381;28;20090;-75
2022/09/26 09:36:53;;;;;;;13.43;8.02;;;;;;;;;;5037172;28;20106;-74
2022/09/26 09:39:33;;;;;;;5.88;1.77;;;;;;;;;;5016274;28;20167;-73
2022/09/26 09:42:05;;;;;;;4.57;1.38;;;;;;;;;;5039831;28;20017;-73
2022/09/26 09:44:36;;;;;;;8.35;2.80;;;;;;;;;;5043658;28;20395;-73
2022/09/26 09:47:07;;;;;;;5.30;2.42;;;;;;;;;;5015744;28;20033;-75
2022/09/26 09:49:33;;;;;;;7.22;4.07;;;;;;;;;;5043086;28;20399;-75
2022/09/26 09:51:59;;;;;;;5.85;1.98;;;;;;;;;;5045116;28;20025;-74
2022/09/26 09:54:30;;;;;;;6.25;3.25;;;;;;;;;;5044650;28;20516;-74
2022/09/26 09:57:13;;;;;;;6.47;3.33;;;;;;;;;;5037194;28;20542;-73
2022/09/26 09:59:39;;;;;;;8.90;3.05;;;;;;;;;;5006074;28;20075;-72
2022/09/26 10:02:11;;;;;;;9.10;4.38;;;;;;;;;;5030875;28;20033;-73
2022/09/26 10:04:45;;;;;;;4.93;2.05;;;;;;;;;;5042073;28;20034;-74
2022/09/26 10:07:11;;;;;;;5.55;1.85;;;;;;;;;;5040555;28;20491;-72
2022/09/26 10:09:38;;;;;;;6.32;1.95;;;;;;;;;;5046366;22;20546;-74
2022/09/26 10:12:15;;;;;;;9.65;4.50;;;;;;;;;;5025391;28;20375;-73
2022/09/26 10:15:01;;;;;;;10.50;4.07;;;;;;;;;;4997729;28;20062;-73
2022/09/26 10:17:28;;;;;;;6.63;3.40;;;;;;;;;;5026576;28;20022;-74
2022/09/26 10:19:54;;;;;;;4.50;2.22;;;;;;;;;;4999062;28;20023;-73
2022/09/26 10:22:31;;;;;;;5.13;1.95;;;;;;;;;;5008432;28;20383;-73
2022/09/26 10:25:02;;;;;;;3.63;1.50;;;;;;;;;;5007263;28;20117;-73
2022/09/26 10:27:28;;;;;;;;;;;;;;;;;;5006786;28;20127;-72
2022/09/26 10:29:58;;;;;;;5.57;1.23;;;;;;;;;;4994170;28;20371;-72
2022/09/26 10:32:24;;;;;;;5.18;1.80;;;;;;;;;;5010848;28;20104;-73
2022/09/26 10:35:24;;;;;;;8.00;2.72;;;;;;;;;;4999643;28;20014;-73
2022/09/26 10:38:05;;;;;;;2.28;1.38;;;;;;;;;;4975632;28;20037;-74
2022/09/26 10:40:49;;;;;;;6.75;1.55;;;;;;;;;;4992920;28;20025;-76
2022/09/26 10:43:19;;;;;;;23.30;13.95;;;;;;;;;;5015725;28;20015;-77
2022/09/26 10:45:46;;;;;;;13.30;9.18;;;;;;;;;;5015914;28;20025;-76
2022/09/26 10:48:12;;;;;;;20.38;12.55;;;;;;;;;;5010284;28;20026;-77
2022/09/26 10:50:46;;;;;;;6.75;2.75;;;;;;;;;;4993219;28;20038;-76
2022/09/26 10:53:16;;;;;;;9.48;5.22;;;;;;;;;;5013491;28;20148;-76
2022/09/26 10:55:45;;;;;;;5.13;2.90;;;;;;;;;;5020366;28;20022;-76
2022/09/26 10:58:21;;;;;;;9.30;3.58;;;;;;;;;;5011278;28;20396;-76
2022/09/26 11:00:49;;;;;;;4.82;1.80;;;;;;;;;;4996236;28;20030;-75
2022/09/26 11:03:17;;;;;;;6.03;1.80;;;;;;;;;;5012956;28;20025;-78
2022/09/26 11:05:56;;;;;;;4.20;2.30;;;;;;;;;;5018689;28;20021;-73
2022/09/26 11:08:33;;;;;;;6.07;2.42;;;;;;;;;;4994006;28;20147;-75
2022/09/26 11:11:00;;;;;;;5.50;2.10;;;;;;;;;;4998708;28;20029;-75
2022/09/26 11:13:31;;;;;;;6.15;3.47;;;;;;;;;;5014244;28;20057;-76
2022/09/26 11:16:01;;;;;;;5.20;1.20;;;;;;;;;;5012989;28;20029;-78
2022/09/26 11:18:42;;;;;;;6.07;2.38;;;;;;;;;;4996178;28;20061;-76
2022/09/26 11:21:33;;;;;;;3.38;1.80;;;;;;;;;;4992865;28;20105;-76
2022/09/26 11:24:19;;;;;;;2.90;1.38;;;;;;;;;;4998248;28;20036;-76
2022/09/26 11:27:04;;;;;;;5.72;1.75;;;;;;;;;;5008895;28;20372;-74
2022/09/26 11:29:54;;;;;;;3.00;1.10;;;;;;;;;;4991148;28;20065;-74
2022/09/26 11:32:28;;;;;;;2.13;1.00;;;;;;;;;;4988823;28;20014;-76
2022/09/26 11:35:01;;;;;;;1.85;1.17;;;;;;;;;;4996842;28;20461;-74
2022/09/26 11:37:31;;;;;;;2.53;1.02;;;;;;;;;;4995623;28;20045;-75
2022/09/26 11:39:57;;;;;;;3.38;1.10;;;;;;;;;;5003884;28;20022;-76
2022/09/26 11:42:32;;;;;;;4.63;0.90;;;;;;;;;;5020860;28;20087;-76
2022/09/26 11:45:11;;;;;;;6.30;1.35;;;;;;;;;;5012393;28;20057;-75
2022/09/26 11:47:38;;;;;;;1.42;0.80;;;;;;;;;;5011864;28;20555;-75
2022/09/26 11:50:07;;;;;;;4.03;1.65;;;;;;;;;;4995012;28;20030;-75
2022/09/26 11:52:33;;;;;;;5.00;1.40;;;;;;;;;;4988276;28;20084;-76
2022/09/26 11:55:10;;;;;;;10.85;1.50;;;;;;;;;;5011851;28;20030;-76
2022/09/26 11:57:52;;;;;;;173.48;117.05;;;;;;;;;;5004367;28;20056;-76
2022/09/26 12:00:26;;;;;;;14.63;8.60;;;;;;;;;;4994995;28;20511;-75
2022/09/26 12:02:56;;;;;;;19.33;12.05;;;;;;;;;;5017026;28;20028;-75
2022/09/26 12:05:37;;;;;;;5.82;1.25;;;;;;;;;;5016386;28;20030;-75
2022/09/26 12:08:15;;;;;;;9.65;6.05;;;;;;;;;;5004615;28;20029;-75
2022/09/26 12:10:47;;;;;;;9.23;4.65;;;;;;;;;;4994994;28;20038;-71
2022/09/26 12:13:33;;;;;;;8.25;3.15;;;;;;;;;;5019001;28;20026;-75
2022/09/26 12:16:17;;;;;;;2.65;1.02;;;;;;;;;;5006703;28;20072;-73
2022/09/26 12:18:44;;;;;;;3.45;1.70;;;;;;;;;;4999165;28;20018;-75
2022/09/26 12:21:36;;;;;;;2.60;0.98;;;;;;;;;;5007335;28;20515;-80
2022/09/26 12:24:10;;;;;;;3.53;1.08;;;;;;;;;;4972241;28;20061;-79
2022/09/26 12:26:45;;;;;;;1.92;1.27;;;;;;;;;;4993495;28;20541;-79
2022/09/26 12:29:31;;;;;;;3.78;0.80;;;;;;;;;;4999529;28;20034;-80
2022/09/26 12:32:13;;;;;;;1.52;1.05;;;;;;;;;;4998837;28;20030;-80
2022/09/26 12:34:59;;;;;;;3.65;0.95;;;;;;;;;;4994908;28;20025;-82
2022/09/26 12:37:44;;;;;;;3.05;1.13;;;;;;;;;;4998721;28;20036;-79
2022/09/26 12:40:10;;;;;;;1.45;0.90;;;;;;;;;;5004371;28;20081;-79
2022/09/26 12:42:39;;;;;;;4.05;1.02;;;;;;;;;;5005336;28;20145;-79
2022/09/26 12:45:24;;;;;;;2.78;0.75;;;;;;;;;;5005529;28;20026;-78
2022/09/26 12:48:09;;;;;;;3.13;0.90;;;;;;;;;;4982814;28;20038;-79
2022/09/26 12:50:46;;;;;;;0.75;0.43;;;;;;;;;;5000146;28;20036;-80
2022/09/26 12:53:12;;;;;;;2.03;0.65;;;;;;;;;;5000488;28;20049;-81
2022/09/26 12:55:41;;;;;;;2.28;0.88;;;;;;;;;;4980104;28;20485;-79
2022/09/26 12:58:15;;;;;;;1.50;0.70;;;;;;;;;;4976273;28;20065;-78
2022/09/26 13:00:46;;;;;;;1.33;0.60;;;;;;;;;;5005451;28;20030;-76
2022/09/26 13:03:27;;;;;;;5.57;1.20;;;;;;;;;;4995270;28;20057;-79
2022/09/26 13:05:53;;;;;;;;;;;;;;;;;;5024816;28;20035;-80
2022/09/26 13:08:19;;;;;;;3.13;0.85;;;;;;;;;;5016416;28;19957;-78
2022/09/26 13:10:49;;;;;;;2.65;0.93;;;;;;;;;;5016796;28;20026;-79
2022/09/26 13:13:24;;;;;;;2.00;0.40;;;;;;;;;;4984305;28;20044;-79
2022/09/26 13:16:12;;;;;;;2.15;0.60;;;;;;;;;;4977633;28;20239;-79
2022/09/26 13:18:42;;;;;;;0.70;0.40;;;;;;;;;;5002500;28;20013;-79
2022/09/26 13:21:18;;;;;;;1.83;0.52;;;;;;;;;;4997682;28;20030;-77
2022/09/26 13:23:52;;;;;;;2.55;0.57;;;;;;;;;;4993814;28;20050;-79
2022/09/26 13:26:42;;;;;;;1.20;0.75;;;;;;;;;;4992569;28;20022;-78
2022/09/26 13:29:10;;;;;;;2.03;0.60;;;;;;;;;;4992167;28;20421;-79
2022/09/26 13:31:40;;;;;;;1.65;0.70;;;;;;;;;;5006166;28;20022;-78
2022/09/26 13:34:12;;;;;;;0.60;0.30;;;;;;;;;;4992620;28;20026;-79
2022/09/26 13:36:40;;;;;;;3.88;1.17;;;;;;;;;;4992534;28;20028;-78
2022/09/26 13:39:12;;;;;;;1.38;0.45;;;;;;;;;;5003618;28;20022;-79
2022/09/26 13:41:48;;;;;;;2.47;0.60;;;;;;;;;;4992827;28;20024;-78
2022/09/26 13:44:30;;;;;;;1.88;0.85;;;;;;;;;;4992357;28;20117;-78
2022/09/26 13:47:07;;;;;;;1.13;0.55;;;;;;;;;;5001919;28;20029;-79
2022/09/26 13:49:33;;;;;;;1.30;0.90;;;;;;;;;;4999630;28;20126;-78
2022/09/26 13:52:05;;;;;;;1.50;0.70;;;;;;;;;;5003900;28;20061;-77
2022/09/26 13:54:44;;;;;;;2.67;0.50;;;;;;;;;;4991988;28;20167;-79
2022/09/26 13:57:33;;;;;;;2.15;0.63;;;;;;;;;;4993172;28;20038;-77
2022/09/26 14:00:00;;;;;;;3.53;0.77;;;;;;;;;;4993083;28;20026;-79
2022/09/26 14:02:28;;;;;;;1.30;0.50;;;;;;;;;;4992718;28;20014;-77
2022/09/26 14:05:03;;;;;;;2.33;0.82;;;;;;;;;;4992286;28;20030;-78
2022/09/26 14:10:33;;;;;;;1.20;0.55;;;;;;;;;;4994034;28;20056;-79
2022/09/26 14:13:07;;;;;;;2.15;0.40;;;;;;;;;;4995081;28;20035;-79
2022/09/26 14:15:48;;;;;;;0.55;0.20;;;;;;;;;;4994336;28;20026;-77
2022/09/26 14:18:14;;;;;;;0.88;0.60;;;;;;;;;;4993633;28;20027;-78
2022/09/26 14:20:51;;;;;;;1.13;0.50;;;;;;;;;;4984383;28;20033;-79
2022/09/26 14:23:47;;;;;;;1.80;0.80;;;;;;;;;;5000601;28;20057;-79
2022/09/26 14:26:40;;;;;;;1.85;0.82;;;;;;;;;;4992765;28;20042;-79
2022/09/26 14:29:24;;;;;;;0.90;0.43;;;;;;;;;;4999977;28;20033;-78
2022/09/26 14:32:03;;;;;;;1.40;0.52;;;;;;;;;;5004988;28;20026;-78
2022/09/26 14:34:47;;;;;;;1.17;0.60;;;;;;;;;;5002955;28;20026;-77
2022/09/26 14:37:33;;;;;;;1.33;0.70;;;;;;;;;;4998683;28;20037;-79
2022/09/26 14:39:59;;;;;;;4.20;1.00;;;;;;;;;;4997251;28;20505;-77
2022/09/26 14:42:28;;;;;;;0.80;0.60;;;;;;;;;;5006274;28;20313;-83
2022/09/26 14:45:01;;;;;;;1.77;0.40;;;;;;;;;;4997723;28;20489;-78
2022/09/26 14:47:28;;;;;;;1.42;0.82;;;;;;;;;;4996401;28;20034;-78
2022/09/26 14:49:58;;;;;;;3.08;0.60;;;;;;;;;;5004369;28;20030;-79
2022/09/26 14:52:24;;;;;;;0.50;0.50;;;;;;;;;;4995416;28;20036;-78
2022/09/26 14:54:53;;;;;;;1.75;0.70;;;;;;;;;;4979548;28;20026;-78
2022/09/26 14:57:27;;;;;;;4.20;0.70;;;;;;;;;;4996797;28;20057;-77
2022/09/26 14:59:54;;;;;;;1.95;0.80;;;;;;;;;;5000781;28;20363;-78
2022/09/26 15:02:25;;;;;;;2.38;1.00;;;;;;;;;;5007851;28;20023;-78
2022/09/26 15:04:59;;;;;;;1.95;0.77;;;;;;;;;;4998963;28;20026;-79
2022/09/26 15:07:26;;;;;;;2.58;0.85;;;;;;;;;;4980090;28;20038;-79
2022/09/26 15:10:12;;;;;;;1.20;0.60;;;;;;;;;;4997554;28;20034;-79
2022/09/26 15:12:42;;;;;;;1.25;0.50;;;;;;;;;;4995317;28;20026;-77
2022/09/26 15:15:09;;;;;;;1.85;0.88;;;;;;;;;;4995014;28;20026;-78
2022/09/26 15:17:39;;;;;;;2.05;0.65;;;;;;;;;;4977261;28;20026;-78
2022/09/26 15:20:06;;;;;;;1.77;0.63;;;;;;;;;;4996730;28;20026;-78
2022/09/26 15:22:33;;;;;;;0.80;0.60;;;;;;;;;;4998344;28;20148;-78
2022/09/26 15:25:18;;;;;;;1.00;0.80;;;;;;;;;;5000486;28;20108;-79
2022/09/26 15:27:47;;;;;;;3.63;1.08;;;;;;;;;;4980227;28;20030;-79
2022/09/26 15:30:18;;;;;;;1.80;0.80;;;;;;;;;;5008274;28;20034;-78
2022/09/26 15:32:47;;;;;;;2.37;1.20;;;;;;;;;;4991442;28;20041;-78
2022/09/26 15:35:14;;;;;;;2.13;0.93;;;;;;;;;;5011444;28;20432;-78
2022/09/26 15:37:41;;;;;;;1.15;0.80;;;;;;;;;;4998678;28;20030;-78
2022/09/26 15:40:11;;;;;;;1.90;1.00;;;;;;;;;;4996138;28;20022;-78
2022/09/26 15:45:34;;;;;;;3.10;1.00;;;;;;;;;;5004415;28;20129;-79
2022/09/26 15:48:01;;;;;;;2.47;0.90;;;;;;;;;;5001082;28;20022;-78
2022/09/26 15:50:30;;;;;;;1.88;0.70;;;;;;;;;;5005129;28;20054;-78
2022/09/26 15:53:00;;;;;;;4.35;1.08;;;;;;;;;;4994615;28;20479;-77
2022/09/26 15:55:32;;;;;;;1.83;0.70;;;;;;;;;;4994552;28;20022;-77
2022/09/26 15:58:00;;;;;;;1.20;0.80;;;;;;;;;;5007513;28;20034;-78
2022/09/26 16:00:30;;;;;;;3.90;1.00;;;;;;;;;;5004612;28;20509;-77